createdAt,value
2017-02-24T00:00:26.723Z,11.95
2017-02-24T00:01:07.261Z,11.88
2017-02-24T00:01:47.798Z,11.79
2017-02-24T00:02:28.323Z,11.98
2017-02-24T00:03:08.867Z,11.98
2017-02-24T00:03:49.381Z,11.98
2017-02-24T00:04:29.891Z,11.94
2017-02-24T00:05:10.410Z,11.95
2017-02-24T00:05:50.920Z,11.8
2017-02-24T00:06:31.443Z,11.85
2017-02-24T00:07:11.975Z,11.88
2017-02-24T00:07:52.493Z,11.95
2017-02-24T00:08:33.087Z,11.95
2017-02-24T00:09:13.634Z,11.99
2017-02-24T00:09:54.125Z,11.94
2017-02-24T00:10:34.653Z,11.96
2017-02-24T00:11:15.170Z,11.82
2017-02-24T00:11:55.688Z,11.8
2017-02-24T00:12:36.220Z,11.76
2017-02-24T00:13:16.738Z,11.96
2017-02-24T00:13:57.300Z,11.79
2017-02-24T00:14:37.774Z,11.88
2017-02-24T00:15:18.273Z,12.01
2017-02-24T00:15:58.785Z,11.83
2017-02-24T00:16:39.319Z,11.98
2017-02-24T00:17:19.874Z,11.9
2017-02-24T00:18:00.399Z,11.76
2017-02-24T00:18:40.919Z,11.99
2017-02-24T00:19:21.442Z,11.85
2017-02-24T00:20:01.969Z,11.86
2017-02-24T00:20:42.495Z,11.79
2017-02-24T00:21:23.015Z,11.78
2017-02-24T00:22:03.549Z,11.7
2017-02-24T00:22:44.091Z,11.69
2017-02-24T00:23:24.620Z,11.6
2017-02-24T00:24:05.141Z,11.72
2017-02-24T00:24:45.661Z,11.82
2017-02-24T00:25:26.184Z,11.69
2017-02-24T00:26:06.719Z,11.75
2017-02-24T00:26:47.244Z,11.64
2017-02-24T00:27:27.824Z,11.65
2017-02-24T00:28:08.341Z,11.6
2017-02-24T00:28:48.868Z,11.43
2017-02-24T00:29:29.400Z,11.37
2017-02-24T00:30:09.927Z,11.46
2017-02-24T00:30:50.500Z,11.51
2017-02-24T00:31:31.021Z,11.51
2017-02-24T00:32:11.553Z,11.43
2017-02-24T00:32:52.082Z,11.28
2017-02-24T00:33:32.599Z,11.32
2017-02-24T00:34:13.117Z,11.33
2017-02-24T00:34:53.635Z,11.32
2017-02-24T00:35:34.155Z,11.21
2017-02-24T00:36:14.709Z,11.24
2017-02-24T00:36:55.257Z,11.29
2017-02-24T00:37:35.774Z,11.33
2017-02-24T00:38:16.301Z,11.33
2017-02-24T00:38:56.835Z,11.43
2017-02-24T00:39:37.361Z,11.42
2017-02-24T00:40:17.931Z,11.49
2017-02-24T00:40:58.464Z,11.44
2017-02-24T00:41:38.984Z,11.37
2017-02-24T00:42:19.515Z,11.33
2017-02-24T00:43:00.029Z,11.37
2017-02-24T00:43:40.573Z,11.4
2017-02-24T00:44:21.096Z,11.32
2017-02-24T00:45:01.628Z,11.44
2017-02-24T00:45:42.149Z,11.52
2017-02-24T00:46:22.693Z,11.43
2017-02-24T00:47:03.227Z,11.44
2017-02-24T00:47:43.783Z,11.35
2017-02-24T00:48:24.299Z,11.42
2017-02-24T00:49:04.816Z,11.36
2017-02-24T00:49:45.336Z,11.36
2017-02-24T00:50:25.863Z,11.42
2017-02-24T00:51:06.390Z,11.35
2017-02-24T00:51:46.925Z,11.29
2017-02-24T00:52:27.455Z,11.33
2017-02-24T00:53:07.987Z,11.39
2017-02-24T00:53:48.520Z,11.49
2017-02-24T00:54:29.039Z,11.49
2017-02-24T00:55:09.568Z,11.42
2017-02-24T00:55:50.117Z,11.46
2017-02-24T00:56:30.650Z,11.4
2017-02-24T00:57:11.189Z,11.28
2017-02-24T00:57:51.751Z,11.28
2017-02-24T00:58:32.263Z,11.36
2017-02-24T00:59:12.775Z,11.27
2017-02-24T00:59:53.298Z,11.27
2017-02-24T01:00:33.825Z,11.47
2017-02-24T01:01:14.362Z,11.39
2017-02-24T01:01:54.883Z,11.39
2017-02-24T01:02:35.414Z,11.37
2017-02-24T01:03:15.936Z,11.33
2017-02-24T01:03:56.458Z,11.15
2017-02-24T01:04:36.999Z,11.32
2017-02-24T01:05:17.528Z,11.18
2017-02-24T01:05:58.071Z,11.32
2017-02-24T01:06:38.591Z,11.36
2017-02-24T01:07:19.111Z,11.28
2017-02-24T01:07:59.637Z,11.32
2017-02-24T01:08:40.165Z,11.21
2017-02-24T01:09:20.686Z,11.35
2017-02-24T01:10:01.205Z,11.29
2017-02-24T01:10:41.735Z,11.24
2017-02-24T01:11:22.251Z,11.35
2017-02-24T01:12:02.778Z,11.25
2017-02-24T01:12:43.301Z,11.18
2017-02-24T01:13:23.813Z,11.24
2017-02-24T01:14:04.349Z,11.22
2017-02-24T01:14:44.888Z,11.29
2017-02-24T01:15:25.414Z,11.19
2017-02-24T01:16:05.943Z,11.25
2017-02-24T01:16:46.466Z,11.39
2017-02-24T01:17:27.011Z,11.42
2017-02-24T01:18:07.541Z,11.18
2017-02-24T01:18:48.058Z,11.15
2017-02-24T01:19:28.592Z,11.24
2017-02-24T01:20:09.113Z,11.28
2017-02-24T01:20:49.619Z,11.28
2017-02-24T01:21:30.136Z,11.37
2017-02-24T01:22:10.666Z,11.39
2017-02-24T01:22:51.186Z,11.35
2017-02-24T01:23:31.712Z,11.28
2017-02-24T01:24:12.224Z,11.29
2017-02-24T01:24:52.782Z,11.21
2017-02-24T01:25:33.303Z,11.33
2017-02-24T01:26:13.834Z,11.25
2017-02-24T01:26:54.362Z,11.22
2017-02-24T01:27:34.917Z,11.37
2017-02-24T01:28:15.429Z,11.28
2017-02-24T01:28:55.944Z,11.18
2017-02-24T01:29:36.485Z,11.1
2017-02-24T01:30:17.016Z,11.18
2017-02-24T01:30:57.564Z,11.37
2017-02-24T01:31:38.098Z,11.18
2017-02-24T01:32:18.629Z,11.18
2017-02-24T01:32:59.152Z,11.11
2017-02-24T01:33:39.671Z,11.18
2017-02-24T01:34:20.202Z,11.15
2017-02-24T01:35:00.725Z,11.17
2017-02-24T01:35:41.238Z,11.04
2017-02-24T01:36:21.778Z,11.04
2017-02-24T01:37:02.299Z,11.07
2017-02-24T01:37:42.818Z,10.97
2017-02-24T01:38:23.352Z,11.03
2017-02-24T01:39:03.880Z,11.04
2017-02-24T01:39:44.410Z,11.09
2017-02-24T01:40:24.952Z,11.06
2017-02-24T01:41:05.485Z,10.82
2017-02-24T01:41:46.016Z,10.99
2017-02-24T01:42:26.517Z,10.97
2017-02-24T01:43:07.056Z,10.94
2017-02-24T01:43:47.584Z,11
2017-02-24T01:44:28.113Z,11
2017-02-24T01:45:08.636Z,11.07
2017-02-24T01:45:49.159Z,10.96
2017-02-24T01:46:29.685Z,10.92
2017-02-24T01:47:10.210Z,10.94
2017-02-24T01:47:50.733Z,10.92
2017-02-24T01:48:31.266Z,10.96
2017-02-24T01:49:11.805Z,10.88
2017-02-24T01:49:52.307Z,10.92
2017-02-24T01:50:32.828Z,10.99
2017-02-24T01:51:13.362Z,10.92
2017-02-24T01:51:53.884Z,10.96
2017-02-24T01:52:34.423Z,10.79
2017-02-24T01:53:14.950Z,10.88
2017-02-24T01:53:55.466Z,10.91
2017-02-24T01:54:35.972Z,10.94
2017-02-24T01:55:16.489Z,10.91
2017-02-24T01:55:57.034Z,10.96
2017-02-24T01:56:37.549Z,10.94
2017-02-24T01:57:18.080Z,10.84
2017-02-24T01:57:58.604Z,10.79
2017-02-24T01:58:39.121Z,10.92
2017-02-24T01:59:19.668Z,10.97
2017-02-24T02:00:00.208Z,10.84
2017-02-24T02:00:40.730Z,10.94
2017-02-24T02:01:21.247Z,10.96
2017-02-24T02:02:01.760Z,10.92
2017-02-24T02:02:42.287Z,10.92
2017-02-24T02:03:22.802Z,10.91
2017-02-24T02:04:03.319Z,10.91
2017-02-24T02:04:43.837Z,10.84
2017-02-24T02:05:24.362Z,10.85
2017-02-24T02:06:04.894Z,10.88
2017-02-24T02:06:45.409Z,10.96
2017-02-24T02:07:25.940Z,11.1
2017-02-24T02:08:06.466Z,11.11
2017-02-24T02:08:46.988Z,10.99
2017-02-24T02:09:27.517Z,10.89
2017-02-24T02:10:08.043Z,10.79
2017-02-24T02:10:48.571Z,10.85
2017-02-24T02:11:29.098Z,10.88
2017-02-24T02:12:09.642Z,10.84
2017-02-24T02:12:50.173Z,10.85
2017-02-24T02:13:30.676Z,10.81
2017-02-24T02:14:11.213Z,10.82
2017-02-24T02:14:51.735Z,10.74
2017-02-24T02:15:32.266Z,10.78
2017-02-24T02:16:12.786Z,10.78
2017-02-24T02:16:53.313Z,10.79
2017-02-24T02:17:33.831Z,10.84
2017-02-24T02:18:14.349Z,10.81
2017-02-24T02:18:54.890Z,10.86
2017-02-24T02:19:35.418Z,10.78
2017-02-24T02:20:15.915Z,10.85
2017-02-24T02:20:56.467Z,10.68
2017-02-24T02:21:36.981Z,10.59
2017-02-24T02:22:17.501Z,10.82
2017-02-24T02:22:58.037Z,10.81
2017-02-24T02:23:38.562Z,10.78
2017-02-24T02:24:19.080Z,10.85
2017-02-24T02:24:59.603Z,10.79
2017-02-24T02:25:40.115Z,10.73
2017-02-24T02:26:20.639Z,10.79
2017-02-24T02:27:01.156Z,10.78
2017-02-24T02:27:41.677Z,10.78
2017-02-24T02:28:22.211Z,10.78
2017-02-24T02:29:02.713Z,10.73
2017-02-24T02:29:43.220Z,10.59
2017-02-24T02:30:23.725Z,10.63
2017-02-24T02:31:04.258Z,10.63
2017-02-24T02:31:44.783Z,10.6
2017-02-24T02:32:25.331Z,10.61
2017-02-24T02:33:05.866Z,10.67
2017-02-24T02:33:46.381Z,10.7
2017-02-24T02:34:26.890Z,10.78
2017-02-24T02:35:07.413Z,10.78
2017-02-24T02:35:47.938Z,10.67
2017-02-24T02:36:28.459Z,10.71
2017-02-24T02:37:08.981Z,10.79
2017-02-24T02:37:49.506Z,10.82
2017-02-24T02:38:30.060Z,10.81
2017-02-24T02:39:10.608Z,10.81
2017-02-24T02:39:51.128Z,10.82
2017-02-24T02:40:31.637Z,10.76
2017-02-24T02:41:12.161Z,10.82
2017-02-24T02:41:52.682Z,10.76
2017-02-24T02:42:33.206Z,10.66
2017-02-24T02:43:13.730Z,10.7
2017-02-24T02:43:54.253Z,10.59
2017-02-24T02:44:34.776Z,10.73
2017-02-24T02:45:15.301Z,10.61
2017-02-24T02:45:55.822Z,10.63
2017-02-24T02:46:36.344Z,10.81
2017-02-24T02:47:16.867Z,10.85
2017-02-24T02:47:57.384Z,10.73
2017-02-24T02:48:37.910Z,10.7
2017-02-24T02:49:18.428Z,10.71
2017-02-24T02:49:58.934Z,10.82
2017-02-24T02:50:39.459Z,10.78
2017-02-24T02:51:20.002Z,10.67
2017-02-24T02:52:00.535Z,10.81
2017-02-24T02:52:41.069Z,10.74
2017-02-24T02:53:21.584Z,10.82
2017-02-24T02:54:02.110Z,10.81
2017-02-24T02:54:42.639Z,10.84
2017-02-24T02:55:23.165Z,10.86
2017-02-24T02:56:03.706Z,10.82
2017-02-24T02:56:44.228Z,10.88
2017-02-24T02:57:24.746Z,10.99
2017-02-24T02:58:05.278Z,10.97
2017-02-24T02:58:45.805Z,10.85
2017-02-24T02:59:26.328Z,10.82
2017-02-24T03:00:06.863Z,10.86
2017-02-24T03:00:47.402Z,10.91
2017-02-24T03:01:27.945Z,10.84
2017-02-24T03:02:08.418Z,10.91
2017-02-24T03:02:48.934Z,10.89
2017-02-24T03:03:29.457Z,10.78
2017-02-24T03:04:09.968Z,10.85
2017-02-24T03:04:50.482Z,10.79
2017-02-24T03:05:31.013Z,10.68
2017-02-24T03:06:11.535Z,10.82
2017-02-24T03:06:52.051Z,10.78
2017-02-24T03:07:32.568Z,10.79
2017-02-24T03:08:13.105Z,10.78
2017-02-24T03:08:53.633Z,10.81
2017-02-24T03:09:34.163Z,10.74
2017-02-24T03:10:14.690Z,10.81
2017-02-24T03:10:55.216Z,10.86
2017-02-24T03:11:35.741Z,10.85
2017-02-24T03:12:16.261Z,10.85
2017-02-24T03:12:56.791Z,10.84
2017-02-24T03:13:37.314Z,10.78
2017-02-24T03:14:17.819Z,10.82
2017-02-24T03:14:58.341Z,10.79
2017-02-24T03:15:38.873Z,10.82
2017-02-24T03:16:19.397Z,10.73
2017-02-24T03:16:59.975Z,10.71
2017-02-24T03:17:40.473Z,10.81
2017-02-24T03:18:21.003Z,10.79
2017-02-24T03:19:01.528Z,10.79
2017-02-24T03:19:42.057Z,10.86
2017-02-24T03:20:22.589Z,10.85
2017-02-24T03:21:03.108Z,10.97
2017-02-24T03:21:43.643Z,10.96
2017-02-24T03:22:24.147Z,11.09
2017-02-24T03:23:04.678Z,11.1
2017-02-24T03:23:45.200Z,11.07
2017-02-24T03:24:25.747Z,10.96
2017-02-24T03:25:06.253Z,11
2017-02-24T03:25:46.758Z,10.99
2017-02-24T03:26:27.294Z,11.03
2017-02-24T03:27:07.814Z,11.03
2017-02-24T03:27:48.334Z,10.96
2017-02-24T03:28:28.874Z,10.94
2017-02-24T03:29:09.409Z,10.91
2017-02-24T03:29:49.944Z,10.86
2017-02-24T03:30:30.471Z,10.89
2017-02-24T03:31:10.996Z,10.97
2017-02-24T03:31:51.566Z,11.09
2017-02-24T03:32:32.083Z,11.03
2017-02-24T03:33:12.614Z,11.1
2017-02-24T03:33:53.144Z,11.1
2017-02-24T03:34:33.665Z,11.17
2017-02-24T03:35:14.203Z,11.15
2017-02-24T03:35:54.726Z,11.24
2017-02-24T03:36:35.244Z,11.18
2017-02-24T03:37:15.762Z,11.15
2017-02-24T03:37:56.293Z,11.21
2017-02-24T03:38:36.808Z,11.18
2017-02-24T03:39:17.372Z,11.32
2017-02-24T03:39:57.892Z,11.29
2017-02-24T03:40:38.412Z,11.22
2017-02-24T03:41:18.934Z,11.35
2017-02-24T03:41:59.456Z,11.27
2017-02-24T03:42:39.995Z,11.22
2017-02-24T03:43:20.518Z,11.36
2017-02-24T03:44:01.049Z,11.18
2017-02-24T03:44:41.576Z,11.07
2017-02-24T03:45:22.097Z,11.04
2017-02-24T03:46:02.640Z,11.11
2017-02-24T03:46:43.156Z,11.07
2017-02-24T03:47:23.690Z,11.18
2017-02-24T03:48:04.241Z,11.19
2017-02-24T03:48:44.762Z,11.33
2017-02-24T03:49:25.436Z,11.18
2017-02-24T03:50:05.932Z,11.19
2017-02-24T03:50:46.468Z,11.22
2017-02-24T03:51:26.984Z,11.27
2017-02-24T03:52:07.507Z,11.42
2017-02-24T03:52:48.045Z,11.36
2017-02-24T03:53:28.552Z,11.37
2017-02-24T03:54:09.090Z,11.42
2017-02-24T03:54:49.608Z,11.42
2017-02-24T03:55:30.133Z,11.35
2017-02-24T03:56:10.649Z,11.39
2017-02-24T03:56:51.174Z,11.37
2017-02-24T03:57:31.697Z,11.27
2017-02-24T03:58:12.217Z,11.21
2017-02-24T03:58:52.753Z,10.99
2017-02-24T03:59:33.291Z,10.94
2017-02-24T04:00:13.804Z,10.92
2017-02-24T04:00:54.342Z,11.07
2017-02-24T04:01:34.863Z,11
2017-02-24T04:02:15.384Z,10.99
2017-02-24T04:02:55.903Z,10.99
2017-02-24T04:03:36.427Z,10.96
2017-02-24T04:04:16.951Z,10.96
2017-02-24T04:04:57.476Z,10.97
2017-02-24T04:05:38.012Z,10.92
2017-02-24T04:06:18.533Z,10.67
2017-02-24T04:06:59.048Z,10.7
2017-02-24T04:07:39.573Z,10.81
2017-02-24T04:08:20.139Z,10.82
2017-02-24T04:09:00.663Z,10.85
2017-02-24T04:09:41.185Z,10.89
2017-02-24T04:10:21.704Z,10.86
2017-02-24T04:11:02.238Z,10.73
2017-02-24T04:11:42.761Z,10.7
2017-02-24T04:12:23.291Z,10.7
2017-02-24T04:13:03.811Z,10.61
2017-02-24T04:13:44.328Z,10.7
2017-02-24T04:14:24.854Z,10.68
2017-02-24T04:15:05.409Z,10.63
2017-02-24T04:15:45.927Z,10.63
2017-02-24T04:16:26.441Z,10.6
2017-02-24T04:17:06.962Z,10.66
2017-02-24T04:17:47.492Z,10.53
2017-02-24T04:18:28.003Z,10.66
2017-02-24T04:19:08.526Z,10.61
2017-02-24T04:19:49.041Z,10.63
2017-02-24T04:20:29.557Z,10.66
2017-02-24T04:21:10.078Z,10.68
2017-02-24T04:21:50.607Z,10.68
2017-02-24T04:22:31.139Z,10.67
2017-02-24T04:23:11.667Z,10.71
2017-02-24T04:23:52.193Z,10.61
2017-02-24T04:24:32.690Z,10.67
2017-02-24T04:25:13.210Z,10.67
2017-02-24T04:25:53.717Z,10.59
2017-02-24T04:26:34.245Z,10.67
2017-02-24T04:27:14.763Z,10.59
2017-02-24T04:27:55.309Z,10.52
2017-02-24T04:28:35.809Z,10.63
2017-02-24T04:29:16.325Z,10.6
2017-02-24T04:29:56.842Z,10.6
2017-02-24T04:30:37.356Z,10.53
2017-02-24T04:31:17.905Z,10.52
2017-02-24T04:31:58.442Z,10.53
2017-02-24T04:32:38.952Z,10.51
2017-02-24T04:33:19.474Z,10.48
2017-02-24T04:34:00.004Z,10.48
2017-02-24T04:34:40.527Z,10.61
2017-02-24T04:35:21.042Z,10.52
2017-02-24T04:36:01.567Z,10.59
2017-02-24T04:36:42.076Z,10.41
2017-02-24T04:37:22.604Z,10.42
2017-02-24T04:38:03.135Z,10.48
2017-02-24T04:38:43.663Z,10.41
2017-02-24T04:39:24.193Z,10.38
2017-02-24T04:40:04.714Z,10.59
2017-02-24T04:40:45.249Z,10.3
2017-02-24T04:41:25.772Z,10.34
2017-02-24T04:42:06.298Z,10.4
2017-02-24T04:42:46.825Z,10.36
2017-02-24T04:43:27.335Z,10.3
2017-02-24T04:44:07.855Z,10.41
2017-02-24T04:44:48.371Z,10.33
2017-02-24T04:45:28.889Z,10.42
2017-02-24T04:46:09.425Z,10.42
2017-02-24T04:46:49.948Z,10.3
2017-02-24T04:47:30.452Z,10.6
2017-02-24T04:48:10.971Z,10.55
2017-02-24T04:48:51.494Z,10.53
2017-02-24T04:49:32.015Z,10.51
2017-02-24T04:50:12.535Z,10.6
2017-02-24T04:50:53.057Z,10.61
2017-02-24T04:51:33.585Z,10.44
2017-02-24T04:52:14.110Z,10.33
2017-02-24T04:52:54.619Z,10.36
2017-02-24T04:53:35.144Z,10.42
2017-02-24T04:54:15.673Z,10.45
2017-02-24T04:54:56.198Z,10.36
2017-02-24T04:55:36.716Z,10.34
2017-02-24T04:56:17.256Z,10.41
2017-02-24T04:56:57.785Z,10.38
2017-02-24T04:57:38.320Z,10.14
2017-02-24T04:58:18.843Z,10.29
2017-02-24T04:58:59.358Z,10.38
2017-02-24T04:59:39.876Z,10.27
2017-02-24T05:00:20.395Z,10.2
2017-02-24T05:01:00.924Z,10.17
2017-02-24T05:01:41.438Z,10.12
2017-02-24T05:02:21.974Z,10.02
2017-02-24T05:03:02.497Z,10.07
2017-02-24T05:03:43.020Z,9.97
2017-02-24T05:04:23.542Z,9.96
2017-02-24T05:05:04.065Z,10.05
2017-02-24T05:05:44.587Z,10.15
2017-02-24T05:06:25.112Z,10.09
2017-02-24T05:07:05.640Z,9.96
2017-02-24T05:07:46.158Z,9.94
2017-02-24T05:08:26.680Z,9.93
2017-02-24T05:09:07.213Z,9.86
2017-02-24T05:09:47.741Z,9.86
2017-02-24T05:10:28.296Z,9.76
2017-02-24T05:11:08.816Z,9.72
2017-02-24T05:11:49.334Z,9.75
2017-02-24T05:12:29.858Z,9.84
2017-02-24T05:13:10.387Z,9.83
2017-02-24T05:13:50.917Z,9.76
2017-02-24T05:14:31.438Z,9.89
2017-02-24T05:15:11.958Z,9.91
2017-02-24T05:15:52.482Z,9.83
2017-02-24T05:16:32.998Z,9.83
2017-02-24T05:17:13.504Z,9.71
2017-02-24T05:17:54.061Z,9.72
2017-02-24T05:18:34.594Z,9.69
2017-02-24T05:19:15.114Z,9.74
2017-02-24T05:19:55.649Z,9.86
2017-02-24T05:20:36.210Z,9.84
2017-02-24T05:21:16.714Z,9.78
2017-02-24T05:21:57.227Z,9.75
2017-02-24T05:22:37.723Z,9.68
2017-02-24T05:23:18.251Z,9.68
2017-02-24T05:23:58.747Z,9.78
2017-02-24T05:24:39.271Z,9.71
2017-02-24T05:25:19.808Z,9.81
2017-02-24T05:26:00.336Z,9.75
2017-02-24T05:26:40.851Z,9.79
2017-02-24T05:27:21.382Z,9.81
2017-02-24T05:28:01.912Z,9.66
2017-02-24T05:28:42.430Z,9.68
2017-02-24T05:29:22.943Z,9.75
2017-02-24T05:30:03.471Z,9.78
2017-02-24T05:30:43.989Z,9.64
2017-02-24T05:31:24.538Z,9.71
2017-02-24T05:32:05.053Z,9.74
2017-02-24T05:32:45.578Z,9.64
2017-02-24T05:33:26.113Z,9.66
2017-02-24T05:34:06.622Z,9.65
2017-02-24T05:34:47.144Z,9.57
2017-02-24T05:35:27.662Z,9.61
2017-02-24T05:36:08.186Z,9.51
2017-02-24T05:36:48.694Z,9.53
2017-02-24T05:37:29.210Z,9.43
2017-02-24T05:38:09.739Z,9.53
2017-02-24T05:38:50.266Z,9.38
2017-02-24T05:39:30.796Z,9.36
2017-02-24T05:40:11.319Z,9.53
2017-02-24T05:40:51.848Z,9.61
2017-02-24T05:41:32.369Z,9.74
2017-02-24T05:42:12.895Z,9.65
2017-02-24T05:42:53.409Z,9.71
2017-02-24T05:43:33.928Z,9.6
2017-02-24T05:44:14.454Z,9.6
2017-02-24T05:44:54.999Z,9.71
2017-02-24T05:45:35.555Z,9.58
2017-02-24T05:46:16.087Z,9.72
2017-02-24T05:46:56.601Z,9.69
2017-02-24T05:47:37.116Z,9.68
2017-02-24T05:48:17.638Z,9.68
2017-02-24T05:48:58.169Z,9.65
2017-02-24T05:49:38.742Z,9.64
2017-02-24T05:50:19.248Z,9.51
2017-02-24T05:50:59.766Z,9.65
2017-02-24T05:51:40.278Z,9.66
2017-02-24T05:52:20.809Z,9.76
2017-02-24T05:53:01.325Z,9.76
2017-02-24T05:53:41.845Z,9.66
2017-02-24T05:54:22.376Z,9.68
2017-02-24T05:55:02.895Z,9.61
2017-02-24T05:55:43.421Z,9.68
2017-02-24T05:56:23.978Z,9.64
2017-02-24T05:57:04.476Z,9.61
2017-02-24T05:57:44.997Z,9.61
2017-02-24T05:58:25.504Z,9.66
2017-02-24T05:59:06.023Z,9.76
2017-02-24T05:59:46.577Z,9.75
2017-02-24T06:00:27.065Z,9.71
2017-02-24T06:01:07.589Z,9.71
2017-02-24T06:01:48.114Z,9.65
2017-02-24T06:02:28.662Z,9.61
2017-02-24T06:03:09.149Z,9.6
2017-02-24T06:03:49.668Z,9.58
2017-02-24T06:04:30.181Z,9.61
2017-02-24T06:05:10.701Z,9.48
2017-02-24T06:05:51.204Z,9.58
2017-02-24T06:06:31.671Z,9.61
2017-02-24T06:07:12.201Z,9.39
2017-02-24T06:07:52.728Z,9.48
2017-02-24T06:08:33.240Z,9.64
2017-02-24T06:09:13.766Z,9.69
2017-02-24T06:09:54.259Z,9.69
2017-02-24T06:10:34.803Z,9.72
2017-02-24T06:11:15.323Z,9.79
2017-02-24T06:11:55.856Z,9.74
2017-02-24T06:12:36.378Z,9.72
2017-02-24T06:13:16.909Z,9.64
2017-02-24T06:13:57.426Z,9.57
2017-02-24T06:14:37.955Z,9.72
2017-02-24T06:15:18.457Z,9.74
2017-02-24T06:15:58.974Z,9.6
2017-02-24T06:16:39.506Z,9.6
2017-02-24T06:17:20.080Z,9.65
2017-02-24T06:18:00.603Z,9.72
2017-02-24T06:18:41.114Z,9.75
2017-02-24T06:19:21.626Z,9.83
2017-02-24T06:20:02.159Z,9.79
2017-02-24T06:20:42.776Z,9.69
2017-02-24T06:21:23.299Z,9.76
2017-02-24T06:22:04.024Z,9.74
2017-02-24T06:22:44.553Z,9.83
2017-02-24T06:23:25.083Z,9.9
2017-02-24T06:24:05.603Z,9.86
2017-02-24T06:24:46.125Z,9.87
2017-02-24T06:25:26.728Z,9.84
2017-02-24T06:26:07.187Z,9.86
2017-02-24T06:26:47.701Z,9.93
2017-02-24T06:27:28.258Z,10.02
2017-02-24T06:28:08.799Z,10.01
2017-02-24T06:28:49.346Z,10.02
2017-02-24T06:29:29.890Z,10.08
2017-02-24T06:30:10.428Z,9.87
2017-02-24T06:30:50.978Z,9.93
2017-02-24T06:31:31.468Z,9.86
2017-02-24T06:32:12.003Z,10.05
2017-02-24T06:32:52.529Z,10.09
2017-02-24T06:33:33.053Z,10.04
2017-02-24T06:34:13.568Z,10.04
2017-02-24T06:34:54.099Z,10.11
2017-02-24T06:35:34.615Z,10.18
2017-02-24T06:36:15.130Z,10.22
2017-02-24T06:36:55.667Z,10.51
2017-02-24T06:37:36.199Z,10.78
2017-02-24T06:38:16.732Z,10.81
2017-02-24T06:38:57.292Z,10.61
2017-02-24T06:39:37.876Z,10.44
2017-02-24T06:40:18.382Z,10.41
2017-02-24T06:40:58.910Z,10.36
2017-02-24T06:41:39.636Z,10.4
2017-02-24T06:42:20.125Z,10.34
2017-02-24T06:43:00.611Z,10.34
2017-02-24T06:43:41.129Z,10.4
2017-02-24T06:44:21.659Z,10.41
2017-02-24T06:45:02.170Z,10.48
2017-02-24T06:45:42.728Z,10.48
2017-02-24T06:46:23.216Z,10.55
2017-02-24T06:47:03.743Z,10.61
2017-02-24T06:47:44.256Z,10.52
2017-02-24T06:48:24.767Z,10.51
2017-02-24T06:49:05.305Z,10.32
2017-02-24T06:49:45.808Z,10.34
2017-02-24T06:50:26.903Z,10.36
2017-02-24T06:51:07.437Z,10.3
2017-02-24T06:51:47.973Z,10.4
2017-02-24T06:52:29.030Z,10.4
2017-02-24T06:53:09.011Z,10.34
2017-02-24T06:53:49.525Z,10.38
2017-02-24T06:54:30.041Z,10.47
2017-02-24T06:55:10.562Z,10.55
2017-02-24T06:55:51.091Z,10.47
2017-02-24T06:56:31.616Z,10.52
2017-02-24T06:57:12.116Z,10.51
2017-02-24T06:57:52.639Z,10.61
2017-02-24T06:58:33.170Z,10.51
2017-02-24T06:59:13.743Z,10.55
2017-02-24T06:59:54.260Z,10.33
2017-02-24T07:00:34.786Z,10.4
2017-02-24T07:01:15.302Z,10.26
2017-02-24T07:01:55.834Z,10.17
2017-02-24T07:02:36.356Z,10.18
2017-02-24T07:03:16.887Z,10.18
2017-02-24T07:03:57.415Z,10.25
2017-02-24T07:04:37.927Z,10.2
2017-02-24T07:05:18.464Z,10.23
2017-02-24T07:05:58.974Z,10.25
2017-02-24T07:06:39.520Z,10.18
2017-02-24T07:07:20.031Z,10.18
2017-02-24T07:08:00.582Z,10.22
2017-02-24T07:08:41.107Z,10.14
2017-02-24T07:09:21.641Z,10.08
2017-02-24T07:10:02.183Z,9.9
2017-02-24T07:10:42.690Z,10.09
2017-02-24T07:11:23.288Z,9.99
2017-02-24T07:12:03.797Z,9.94
2017-02-24T07:12:44.342Z,10.23
2017-02-24T07:13:24.853Z,10.18
2017-02-24T07:14:05.391Z,10.17
2017-02-24T07:14:45.897Z,10.32
2017-02-24T07:15:26.528Z,10.42
2017-02-24T07:16:07.027Z,10.33
2017-02-24T07:16:47.562Z,10.18
2017-02-24T07:17:28.083Z,10.61
2017-02-24T07:18:08.616Z,10.64
2017-02-24T07:18:49.149Z,10.73
2017-02-24T07:19:29.685Z,10.73
2017-02-24T07:20:10.232Z,10.76
2017-02-24T07:20:50.718Z,10.86
2017-02-24T07:21:31.240Z,10.56
2017-02-24T07:22:11.763Z,10.56
2017-02-24T07:22:52.234Z,10.56
2017-02-24T07:23:32.747Z,10.6
2017-02-24T07:24:13.259Z,10.42
2017-02-24T07:24:53.788Z,10.76
2017-02-24T07:25:34.303Z,11.09
2017-02-24T07:26:14.820Z,11.27
2017-02-24T07:26:55.339Z,11.18
2017-02-24T07:27:35.914Z,11.02
2017-02-24T07:28:16.448Z,11.03
2017-02-24T07:28:56.964Z,10.96
2017-02-24T07:29:37.466Z,11.18
2017-02-24T07:30:17.983Z,11.19
2017-02-24T07:30:58.501Z,11.43
2017-02-24T07:31:39.015Z,11.52
2017-02-24T07:32:19.564Z,11.73
2017-02-24T07:33:00.082Z,11.54
2017-02-24T07:33:40.591Z,11.47
2017-02-24T07:34:21.151Z,11.4
2017-02-24T07:35:01.681Z,11.29
2017-02-24T07:35:42.220Z,11.03
2017-02-24T07:36:22.748Z,11.18
2017-02-24T07:37:03.316Z,11.39
2017-02-24T07:37:43.808Z,11.46
2017-02-24T07:38:24.330Z,11.51
2017-02-24T07:39:04.835Z,11.6
2017-02-24T07:39:45.313Z,11.67
2017-02-24T07:40:25.931Z,11.55
2017-02-24T07:41:06.440Z,11.44
2017-02-24T07:41:46.945Z,11.52
2017-02-24T07:42:27.473Z,11.29
2017-02-24T07:43:07.983Z,11.18
2017-02-24T07:43:48.476Z,11.39
2017-02-24T07:44:28.975Z,11.37
2017-02-24T07:45:09.491Z,11.37
2017-02-24T07:45:50.000Z,11.36
2017-02-24T07:46:30.474Z,11.37
2017-02-24T07:47:10.968Z,11.6
2017-02-24T07:47:51.508Z,11.83
2017-02-24T07:48:32.047Z,11.69
2017-02-24T07:49:12.923Z,11.62
2017-02-24T07:49:53.101Z,11.78
2017-02-24T07:50:33.586Z,11.67
2017-02-24T07:51:14.094Z,11.64
2017-02-24T07:51:54.601Z,11.78
2017-02-24T07:52:35.145Z,11.79
2017-02-24T07:53:15.644Z,11.96
2017-02-24T07:53:56.118Z,11.76
2017-02-24T07:54:36.681Z,11.76
2017-02-24T07:55:17.153Z,11.7
2017-02-24T07:55:57.684Z,11.72
2017-02-24T07:56:38.192Z,11.72
2017-02-24T07:57:18.700Z,11.54
2017-02-24T07:57:59.181Z,11.54
2017-02-24T07:58:40.093Z,11.75
2017-02-24T07:59:20.616Z,11.69
2017-02-24T08:00:01.142Z,11.32
2017-02-24T08:00:41.668Z,11.02
2017-02-24T08:01:22.152Z,11.36
2017-02-24T08:02:02.649Z,11.32
2017-02-24T08:02:43.182Z,11.27
2017-02-24T08:03:23.702Z,11.14
2017-02-24T08:04:04.227Z,11.19
2017-02-24T08:04:44.691Z,11.52
2017-02-24T08:05:25.207Z,11.54
2017-02-24T08:06:05.703Z,11.65
2017-02-24T08:06:46.249Z,11.7
2017-02-24T08:07:26.820Z,11.82
2017-02-24T08:08:07.338Z,11.51
2017-02-24T08:08:47.863Z,11.85
2017-02-24T08:09:28.374Z,11.76
2017-02-24T08:10:08.910Z,11.86
2017-02-24T08:10:49.434Z,12.29
2017-02-24T08:11:29.942Z,12.49
2017-02-24T08:12:10.470Z,12.6
2017-02-24T08:12:50.968Z,12.49
2017-02-24T08:13:31.476Z,12.29
2017-02-24T08:14:12.070Z,12.17
2017-02-24T08:14:52.606Z,12.28
2017-02-24T08:15:33.272Z,12.27
2017-02-24T08:16:13.728Z,12.54
2017-02-24T08:16:54.203Z,12.72
2017-02-24T08:17:34.707Z,12.74
2017-02-24T08:18:15.199Z,12.83
2017-02-24T08:18:55.693Z,12.52
2017-02-24T08:19:36.392Z,12.56
2017-02-24T08:20:16.766Z,12.56
2017-02-24T08:20:57.289Z,12.59
2017-02-24T08:21:37.940Z,12.56
2017-02-24T08:22:18.402Z,12.68
2017-02-24T08:22:58.877Z,12.71
2017-02-24T08:23:39.398Z,12.71
2017-02-24T08:24:19.920Z,12.59
2017-02-24T08:25:00.384Z,12.83
2017-02-24T08:25:40.908Z,12.86
2017-02-24T08:26:21.432Z,13.08
2017-02-24T08:27:01.952Z,12.83
2017-02-24T08:27:42.586Z,12.57
2017-02-24T08:28:23.114Z,12.72
2017-02-24T08:29:03.628Z,12.78
2017-02-24T08:29:44.153Z,12.85
2017-02-24T08:30:24.682Z,12.83
2017-02-24T08:31:05.319Z,13
2017-02-24T08:31:45.772Z,13.01
2017-02-24T08:32:26.293Z,13.05
2017-02-24T08:33:06.925Z,13.04
2017-02-24T08:33:47.564Z,13.1
2017-02-24T08:34:28.384Z,13.08
2017-02-24T08:35:08.901Z,13.15
2017-02-24T08:35:49.415Z,13.22
2017-02-24T08:36:29.944Z,13.29
2017-02-24T08:37:10.469Z,13.23
2017-02-24T08:37:50.895Z,13.11
2017-02-24T08:38:31.787Z,13.08
2017-02-24T08:39:12.440Z,13.19
2017-02-24T08:39:52.953Z,13.26
2017-02-24T08:40:33.507Z,13.26
2017-02-24T08:41:13.978Z,13.17
2017-02-24T08:41:54.532Z,13.29
2017-02-24T08:42:35.047Z,13.41
2017-02-24T08:43:15.560Z,13.44
2017-02-24T08:43:56.136Z,13.49
2017-02-24T08:44:36.586Z,13.59
2017-02-24T08:45:17.063Z,13.55
2017-02-24T08:45:57.567Z,13.1
2017-02-24T08:46:38.058Z,13